createdAt,value
2023-06-21T00:00:37.556Z,21.21
2023-06-21T00:04:39.274Z,21.11
2023-06-21T00:08:40.961Z,21.08
2023-06-21T00:12:42.662Z,21.04
2023-06-21T00:16:45.556Z,21.00
2023-06-21T00:20:48.263Z,20.99
2023-06-21T00:24:50.258Z,20.97
2023-06-21T00:28:51.941Z,20.97
2023-06-21T00:32:53.774Z,20.96
2023-06-21T00:36:55.630Z,20.93
2023-06-21T00:40:58.773Z,20.91
2023-06-21T00:45:01.000Z,20.89
2023-06-21T00:49:02.828Z,20.87
2023-06-21T00:53:04.550Z,20.85
2023-06-21T00:57:06.733Z,20.83
2023-06-21T01:01:08.500Z,20.79
2023-06-21T01:05:10.611Z,20.76
2023-06-21T01:09:24.308Z,20.74
2023-06-21T01:13:49.927Z,20.71
2023-06-21T01:17:53.830Z,20.68
2023-06-21T01:21:58.975Z,20.65
2023-06-21T01:26:17.303Z,20.70
2023-06-21T01:30:21.498Z,20.75
2023-06-21T01:34:24.305Z,20.73
2023-06-21T01:38:25.996Z,20.72
2023-06-21T01:42:27.749Z,20.68
2023-06-21T01:46:29.732Z,20.63
2023-06-21T01:50:32.903Z,20.57
2023-06-21T01:54:35.753Z,20.52
2023-06-21T01:58:37.871Z,20.45
2023-06-21T02:02:40.625Z,20.41
2023-06-21T02:06:42.456Z,20.33
2023-06-21T02:10:45.901Z,20.26
2023-06-21T02:14:47.650Z,20.20
2023-06-21T02:18:49.951Z,20.16
2023-06-21T02:22:51.690Z,20.10
2023-06-21T02:26:53.397Z,20.08
2023-06-21T02:30:55.123Z,20.03
2023-06-21T02:34:56.960Z,20.02
2023-06-21T02:38:58.673Z,20.02
2023-06-21T02:43:00.868Z,19.98
2023-06-21T02:47:02.808Z,19.96
2023-06-21T02:51:04.931Z,19.93
2023-06-21T02:55:08.506Z,19.91
2023-06-21T02:59:11.268Z,19.90
2023-06-21T03:03:13.107Z,19.90
2023-06-21T03:07:14.870Z,19.91
2023-06-21T03:11:16.733Z,19.90
2023-06-21T03:15:18.497Z,19.89
2023-06-21T03:19:21.006Z,19.90
2023-06-21T03:23:23.670Z,19.89
2023-06-21T03:27:26.138Z,19.90
2023-06-21T03:31:28.083Z,19.89
2023-06-21T03:35:30.925Z,19.91
2023-06-21T03:39:32.987Z,19.98
2023-06-21T03:43:34.767Z,20.08
2023-06-21T03:47:41.992Z,20.19
2023-06-21T03:51:43.916Z,20.34
2023-06-21T03:55:45.906Z,20.45
2023-06-21T03:59:47.703Z,20.57
2023-06-21T04:03:50.960Z,20.69
2023-06-21T04:07:52.826Z,20.82
2023-06-21T04:11:54.631Z,20.94
2023-06-21T04:15:56.387Z,21.05
2023-06-21T04:19:59.760Z,21.12
2023-06-21T04:24:04.591Z,21.17
2023-06-21T04:28:07.570Z,21.16
2023-06-21T04:32:10.922Z,21.12
2023-06-21T04:36:12.656Z,21.08
2023-06-21T04:40:18.673Z,21.07
2023-06-21T04:44:21.466Z,21.05
2023-06-21T04:48:25.733Z,21.09
2023-06-21T04:52:29.856Z,21.16
2023-06-21T04:56:33.329Z,21.34
2023-06-21T05:00:36.109Z,21.49
2023-06-21T05:04:37.886Z,21.56
2023-06-21T05:08:41.265Z,21.57
2023-06-21T05:12:44.380Z,21.63
2023-06-21T05:16:46.121Z,21.79
2023-06-21T05:20:49.089Z,21.94
2023-06-21T05:24:50.989Z,22.05
2023-06-21T05:28:52.811Z,22.20
2023-06-21T05:32:54.747Z,22.23
2023-06-21T05:36:56.973Z,22.22
2023-06-21T05:41:02.105Z,22.26
2023-06-21T05:45:07.939Z,22.37
2023-06-21T05:49:09.751Z,22.44
2023-06-21T05:53:13.272Z,22.48
2023-06-21T05:57:16.939Z,22.60
2023-06-21T06:01:24.610Z,22.63
2023-06-21T06:05:31.430Z,22.61
2023-06-21T06:09:34.925Z,22.70
2023-06-21T06:13:37.286Z,22.81
2023-06-21T06:17:41.104Z,22.87
2023-06-21T06:21:43.745Z,22.95
2023-06-21T06:25:46.934Z,22.98
2023-06-21T06:29:50.696Z,23.02
2023-06-21T06:33:55.141Z,23.09
2023-06-21T06:37:58.936Z,23.27
2023-06-21T06:42:01.316Z,23.54
2023-06-21T06:46:04.473Z,23.60
2023-06-21T06:50:09.990Z,23.78
2023-06-21T06:54:12.478Z,23.90
2023-06-21T06:58:15.942Z,23.88
2023-06-21T07:02:18.950Z,23.97
2023-06-21T07:06:27.203Z,23.84
2023-06-21T07:10:29.259Z,23.66
2023-06-21T07:14:31.941Z,23.63
2023-06-21T07:18:35.664Z,23.86
2023-06-21T07:22:41.965Z,24.13
2023-06-21T07:26:45.943Z,24.40
2023-06-21T07:30:48.832Z,24.85
2023-06-21T07:34:52.996Z,24.94
2023-06-21T07:38:55.416Z,25.16
2023-06-21T07:42:57.283Z,25.42
2023-06-21T07:46:59.389Z,25.85
2023-06-21T07:51:01.918Z,26.10
2023-06-21T07:55:06.892Z,26.19
2023-06-21T07:59:10.529Z,26.28
2023-06-21T08:03:15.868Z,26.36
2023-06-21T08:07:22.571Z,26.70
2023-06-21T08:11:27.415Z,26.95
2023-06-21T08:15:29.584Z,27.00
2023-06-21T08:19:31.490Z,26.44
2023-06-21T08:23:35.032Z,26.01
2023-06-21T08:27:38.215Z,26.03
2023-06-21T08:31:42.456Z,25.92
2023-06-21T08:35:47.206Z,25.74
2023-06-21T08:39:53.786Z,26.10
2023-06-21T08:43:55.564Z,26.74
2023-06-21T08:48:06.040Z,26.81
2023-06-21T08:52:14.189Z,26.97
2023-06-21T08:56:22.948Z,27.17
2023-06-21T09:00:38.010Z,27.32
2023-06-21T09:04:49.302Z,27.48
2023-06-21T09:08:53.207Z,27.77
2023-06-21T09:13:02.677Z,27.85
2023-06-21T09:17:08.062Z,27.98
2023-06-21T09:21:12.685Z,28.33
2023-06-21T09:25:14.972Z,28.73
2023-06-21T09:29:17.536Z,29.04
2023-06-21T09:33:20.579Z,28.96
2023-06-21T09:37:39.951Z,29.27
2023-06-21T09:41:44.997Z,29.09
2023-06-21T09:46:05.484Z,29.12
2023-06-21T09:50:08.984Z,29.38
2023-06-21T09:54:11.385Z,29.01
2023-06-21T09:58:15.665Z,28.92
2023-06-21T10:02:20.474Z,28.56
2023-06-21T10:06:31.214Z,28.26
2023-06-21T10:10:35.945Z,28.20
2023-06-21T10:14:41.009Z,28.47
2023-06-21T10:18:43.243Z,28.66
2023-06-21T10:22:48.380Z,28.42
2023-06-21T10:26:52.005Z,28.24
2023-06-21T10:30:58.431Z,28.25
2023-06-21T10:35:22.652Z,28.50
2023-06-21T10:39:27.988Z,28.60
2023-06-21T10:43:30.971Z,28.99
2023-06-21T10:47:34.167Z,29.11
2023-06-21T10:51:41.920Z,29.34
2023-06-21T10:55:44.604Z,29.19
2023-06-21T10:59:48.591Z,29.39
2023-06-21T11:03:51.101Z,29.68
2023-06-21T11:08:08.026Z,29.87
2023-06-21T11:12:10.185Z,29.67
2023-06-21T11:16:14.745Z,29.50
2023-06-21T11:20:23.915Z,29.57
2023-06-21T11:24:27.489Z,29.67
2023-06-21T11:28:35.223Z,29.92
2023-06-21T11:32:54.546Z,30.07
2023-06-21T11:36:57.457Z,30.00
2023-06-21T11:41:00.047Z,29.82
2023-06-21T11:45:18.166Z,30.15
2023-06-21T11:49:21.978Z,30.55
2023-06-21T11:53:42.013Z,30.58
2023-06-21T11:57:47.792Z,30.84
2023-06-21T12:01:52.018Z,31.02
2023-06-21T12:06:00.484Z,30.83
2023-06-21T12:10:06.069Z,30.77
2023-06-21T12:14:10.394Z,30.96
2023-06-21T12:18:13.722Z,31.21
2023-06-21T12:22:16.824Z,32.13
2023-06-21T12:26:19.455Z,33.36
2023-06-21T12:30:21.496Z,34.88
2023-06-21T12:34:24.062Z,35.95
2023-06-21T12:38:25.750Z,35.97
2023-06-21T12:42:32.804Z,35.10
2023-06-21T12:46:40.979Z,35.77
2023-06-21T12:50:44.144Z,35.23
2023-06-21T12:54:58.229Z,34.58
2023-06-21T12:59:00.963Z,35.09
2023-06-21T13:03:04.202Z,36.11
2023-06-21T13:07:10.071Z,36.03
2023-06-21T13:11:14.753Z,36.95
2023-06-21T13:15:17.067Z,37.74
2023-06-21T13:19:20.075Z,37.76
2023-06-21T13:23:23.121Z,38.28
2023-06-21T13:27:26.410Z,39.08
2023-06-21T13:31:28.511Z,37.73
2023-06-21T13:35:31.071Z,36.56
2023-06-21T13:39:34.430Z,34.86
2023-06-21T13:43:36.318Z,33.64
2023-06-21T13:47:39.613Z,33.93
2023-06-21T13:51:42.058Z,35.55
2023-06-21T13:55:44.395Z,37.60
2023-06-21T13:59:48.994Z,39.36
2023-06-21T14:03:51.242Z,39.92
2023-06-21T14:07:53.363Z,41.12
2023-06-21T14:11:55.600Z,41.61
2023-06-21T14:15:59.452Z,41.70
2023-06-21T14:20:07.626Z,41.03
2023-06-21T14:24:09.593Z,40.68
2023-06-21T14:28:11.499Z,41.00
2023-06-21T14:32:13.547Z,41.11
2023-06-21T14:36:15.672Z,40.82
2023-06-21T14:40:18.094Z,41.25
2023-06-21T14:44:19.898Z,41.34
2023-06-21T14:48:22.166Z,41.00
2023-06-21T14:52:24.898Z,40.73
2023-06-21T14:56:27.073Z,40.39
2023-06-21T15:00:29.057Z,39.35
2023-06-21T15:04:31.508Z,38.45
2023-06-21T15:08:35.733Z,38.01
2023-06-21T15:12:48.032Z,37.22
2023-06-21T15:16:58.241Z,36.41
2023-06-21T15:21:00.040Z,36.88
2023-06-21T15:25:01.738Z,36.29
2023-06-21T15:29:08.442Z,35.57
2023-06-21T15:33:11.035Z,35.02
2023-06-21T15:37:13.159Z,34.36
2023-06-21T15:41:15.104Z,33.93
2023-06-21T15:45:16.799Z,33.58
2023-06-21T15:49:18.633Z,33.20
2023-06-21T15:53:22.097Z,32.71
2023-06-21T15:57:27.647Z,32.70
2023-06-21T16:01:29.551Z,32.70
2023-06-21T16:05:33.113Z,32.47
2023-06-21T16:09:34.812Z,32.31
2023-06-21T16:13:46.345Z,32.18
2023-06-21T16:17:49.521Z,31.89
2023-06-21T16:21:51.175Z,31.74
2023-06-21T16:25:56.117Z,31.78
2023-06-21T16:29:58.222Z,31.63
2023-06-21T16:34:02.132Z,31.38
2023-06-21T16:38:03.981Z,31.09
2023-06-21T16:42:06.220Z,31.01
2023-06-21T16:46:07.940Z,30.93
2023-06-21T16:50:10.895Z,30.92
2023-06-21T16:54:12.610Z,31.10
2023-06-21T16:58:14.338Z,31.07
2023-06-21T17:02:16.153Z,31.09
2023-06-21T17:06:25.303Z,31.08
2023-06-21T17:10:27.439Z,31.02
2023-06-21T17:14:29.243Z,30.98
2023-06-21T17:18:34.093Z,30.89
2023-06-21T17:22:36.329Z,30.80
2023-06-21T17:26:38.132Z,30.71
2023-06-21T17:30:42.134Z,30.48
2023-06-21T17:34:44.011Z,30.38
2023-06-21T17:38:45.857Z,30.22
2023-06-21T17:42:48.430Z,30.07
2023-06-21T17:46:52.196Z,29.87
2023-06-21T17:50:55.132Z,29.73
2023-06-21T17:54:57.720Z,29.64
2023-06-21T17:59:05.138Z,29.49
2023-06-21T18:03:08.546Z,29.36
2023-06-21T18:07:12.154Z,29.25
2023-06-21T18:11:13.893Z,29.21
2023-06-21T18:15:21.179Z,29.13
2023-06-21T18:19:22.872Z,29.05
2023-06-21T18:23:25.140Z,28.94
2023-06-21T18:27:26.858Z,28.79
2023-06-21T18:31:28.688Z,28.61
2023-06-21T18:35:31.226Z,28.47
2023-06-21T18:39:33.041Z,28.31
2023-06-21T18:43:35.118Z,28.14
2023-06-21T18:47:37.141Z,27.96
2023-06-21T18:51:40.151Z,27.79
2023-06-21T18:55:41.864Z,27.62
2023-06-21T18:59:44.632Z,27.42
2023-06-21T19:03:48.714Z,27.20
2023-06-21T19:07:52.077Z,26.99
2023-06-21T19:11:54.186Z,26.75
2023-06-21T19:15:58.146Z,26.56
2023-06-21T19:19:59.807Z,26.35
2023-06-21T19:24:03.203Z,26.19
2023-06-21T19:28:05.198Z,26.04
2023-06-21T19:32:08.189Z,25.83
2023-06-21T19:36:10.272Z,25.61
2023-06-21T19:40:13.188Z,25.41
2023-06-21T19:44:15.483Z,25.25
2023-06-21T19:48:19.222Z,25.11
2023-06-21T19:52:20.929Z,24.94
2023-06-21T19:56:22.799Z,24.80
2023-06-21T20:00:25.167Z,24.66
2023-06-21T20:04:26.849Z,24.55
2023-06-21T20:08:28.927Z,24.44
2023-06-21T20:12:31.186Z,24.34
2023-06-21T20:16:33.154Z,24.24
2023-06-21T20:20:36.413Z,24.17
2023-06-21T20:24:38.113Z,24.09
2023-06-21T20:28:39.824Z,24.00
2023-06-21T20:32:41.585Z,23.93
2023-06-21T20:36:44.438Z,23.86
2023-06-21T20:40:47.108Z,23.82
2023-06-21T20:44:48.922Z,23.74
2023-06-21T20:48:54.516Z,23.69
2023-06-21T20:52:56.305Z,23.67
2023-06-21T20:56:58.064Z,23.64
2023-06-21T21:00:59.752Z,23.61
2023-06-21T21:05:01.645Z,23.57
2023-06-21T21:09:04.527Z,23.48
2023-06-21T21:13:08.582Z,23.46
2023-06-21T21:17:10.297Z,23.41
2023-06-21T21:21:13.043Z,23.35
2023-06-21T21:25:15.152Z,23.32
2023-06-21T21:29:17.287Z,23.34
2023-06-21T21:33:20.506Z,23.32
2023-06-21T21:37:22.227Z,23.27
2023-06-21T21:41:23.905Z,23.20
2023-06-21T21:45:26.199Z,23.13
2023-06-21T21:49:27.872Z,23.03
2023-06-21T21:53:29.598Z,22.96
2023-06-21T21:57:31.302Z,22.90
2023-06-21T22:01:34.777Z,22.83
2023-06-21T22:05:36.438Z,22.75
2023-06-21T22:09:38.150Z,22.69
2023-06-21T22:13:39.990Z,22.60
2023-06-21T22:17:41.765Z,22.53
2023-06-21T22:21:44.617Z,22.48
2023-06-21T22:25:46.851Z,22.42
2023-06-21T22:29:48.550Z,22.40
2023-06-21T22:33:50.249Z,22.38
2023-06-21T22:37:51.990Z,22.38
2023-06-21T22:41:53.762Z,22.43
2023-06-21T22:45:55.636Z,22.50
2023-06-21T22:49:57.586Z,22.53
2023-06-21T22:53:59.355Z,22.58
2023-06-21T22:58:01.293Z,22.61
2023-06-21T23:02:03.159Z,22.62
2023-06-21T23:06:09.734Z,22.64
2023-06-21T23:10:11.602Z,22.66
2023-06-21T23:14:19.626Z,22.70
2023-06-21T23:18:21.511Z,22.75
2023-06-21T23:22:23.442Z,22.80
2023-06-21T23:26:28.152Z,22.83
2023-06-21T23:30:35.979Z,22.83
2023-06-21T23:34:38.793Z,22.83
2023-06-21T23:38:46.216Z,22.79
2023-06-21T23:42:49.775Z,22.74
2023-06-21T23:46:51.452Z,22.78
2023-06-21T23:50:53.146Z,22.86
2023-06-21T23:54:54.847Z,22.97
2023-06-21T23:58:56.616Z,23.03
